LKKU  Kunovice Airport

Add Bookmark

Uherské Hradiště, Czech Republic

Status IATA
Operational UHE
Latitude Longitude
49° 1' 45" N 17° 26' 22" E
49.029400 17.439699
Local (DST + 2) UTC (GMT + 1)
Nov 20, 2014 11:38 Nov 20, 2014 22:38
Sunrise-Sunset Local UTC
Begin Civil Twilight 06:31 05:31
Sunrise 07:06 06:06
Sunset 04:05 15:05
End Civil Twilight 04:40 15:40

Current Weather

METAR Observed MVFR
LKKU 201800Z 02005KT 9999 SCT017 OVC021 06/05 Q1025 Thu, Nov 20, 2014 @ 18:00 UTC
(4 Hours, 38 Minutes ago)
Marginal Visual Flight Rules
Wind Visibility Clouds Conditions
020° at 5 knots (9 kph) 10 km or more
  • Scattered at 1,700' AGL
  • Overcast at 2,100' AGL
  • No significant weather
Temperatures Readings Precipitation
Current Temp 6°C (43°F)
Dewpoint 5°C (41°F)
Humidity 93%
Altimeter 30.27"Hg
Sea Level Pressure 1025mb
Field Elevation 580.71'
None Recorded

Additional weather within a 92.6km radius of LKKU

Map ICAO Location
LZPP 53.2km S (148°)
LKTB 55.9km W (284°)
LZZI 88.3km E (075°)
LKMT 88.5km N (033°)

24 Hour Weather History

Loading
-

24 Hour Weather Graphs

Loading
-

CheckWX.com is intended as a tool to help pilots better visualize weather data. It is not intended as a substitute for an official weather briefing obtained from a Flight Service Station. CheckWX.com does not meet the FAA requirements for an official pre-flight weather briefing. Therefore, it's important that pilots still call and obtain an official FSS pre-flight weather briefing.